sensor_id;sensor_type;location;lat;lon;timestamp;pressure;altitude;pressure_sealevel;temperature;humidity
57644;BME280;43474;46.510;6.686;2023-02-08T00:01:36;97838.72;;;-2.15;100.00
57644;BME280;43474;46.510;6.686;2023-02-08T00:04:02;97843.09;;;-2.16;100.00
57644;BME280;43474;46.510;6.686;2023-02-08T00:06:28;97838.41;;;-2.22;100.00
57644;BME280;43474;46.510;6.686;2023-02-08T00:08:53;97827.88;;;-2.20;100.00
57644;BME280;43474;46.510;6.686;2023-02-08T00:11:19;97831.66;;;-2.24;100.00
57644;BME280;43474;46.510;6.686;2023-02-08T00:13:44;97835.78;;;-2.11;100.00
57644;BME280;43474;46.510;6.686;2023-02-08T00:16:12;97820.47;;;-2.25;100.00
57644;BME280;43474;46.510;6.686;2023-02-08T00:18:38;97830.16;;;-2.27;100.00
57644;BME280;43474;46.510;6.686;2023-02-08T00:21:09;97820.72;;;-2.28;100.00
57644;BME280;43474;46.510;6.686;2023-02-08T00:23:35;97826.25;;;-2.21;100.00
57644;BME280;43474;46.510;6.686;2023-02-08T00:26:01;97829.66;;;-2.21;100.00
57644;BME280;43474;46.510;6.686;2023-02-08T00:28:26;97830.03;;;-2.25;100.00
57644;BME280;43474;46.510;6.686;2023-02-08T00:30:52;97820.25;;;-2.44;100.00
57644;BME280;43474;46.510;6.686;2023-02-08T00:33:17;97818.72;;;-2.36;100.00
57644;BME280;43474;46.510;6.686;2023-02-08T00:35:43;97825.81;;;-2.38;100.00
57644;BME280;43474;46.510;6.686;2023-02-08T00:38:08;97804.69;;;-2.44;100.00
57644;BME280;43474;46.510;6.686;2023-02-08T00:40:34;97832.41;;;-2.33;100.00
57644;BME280;43474;46.510;6.686;2023-02-08T00:43:00;97815.66;;;-2.41;100.00
57644;BME280;43474;46.510;6.686;2023-02-08T00:45:27;97813.56;;;-2.47;100.00
57644;BME280;43474;46.510;6.686;2023-02-08T00:47:52;97799.88;;;-2.60;100.00
57644;BME280;43474;46.510;6.686;2023-02-08T00:50:18;97821.69;;;-2.51;100.00
57644;BME280;43474;46.510;6.686;2023-02-08T00:52:43;97817.00;;;-2.57;100.00
57644;BME280;43474;46.510;6.686;2023-02-08T00:55:09;97830.53;;;-2.54;100.00
57644;BME280;43474;46.510;6.686;2023-02-08T00:57:35;97795.53;;;-2.71;100.00
57644;BME280;43474;46.510;6.686;2023-02-08T01:00:01;97796.00;;;-2.66;100.00
57644;BME280;43474;46.510;6.686;2023-02-08T01:02:26;97809.91;;;-2.55;100.00
57644;BME280;43474;46.510;6.686;2023-02-08T01:04:52;97822.41;;;-2.61;100.00
57644;BME280;43474;46.510;6.686;2023-02-08T01:07:18;97822.28;;;-2.59;100.00
57644;BME280;43474;46.510;6.686;2023-02-08T01:09:43;97808.38;;;-2.69;100.00
57644;BME280;43474;46.510;6.686;2023-02-08T01:12:09;97830.91;;;-2.58;100.00
57644;BME280;43474;46.510;6.686;2023-02-08T01:14:39;97810.63;;;-2.76;100.00
57644;BME280;43474;46.510;6.686;2023-02-08T01:17:05;97811.44;;;-2.75;100.00
57644;BME280;43474;46.510;6.686;2023-02-08T01:19:32;97820.19;;;-2.76;100.00
57644;BME280;43474;46.510;6.686;2023-02-08T01:21:58;97825.84;;;-2.82;100.00
57644;BME280;43474;46.510;6.686;2023-02-08T01:24:24;97798.38;;;-2.96;100.00
57644;BME280;43474;46.510;6.686;2023-02-08T01:26:49;97833.38;;;-2.79;100.00
57644;BME280;43474;46.510;6.686;2023-02-08T01:29:15;97823.25;;;-2.82;100.00
57644;BME280;43474;46.510;6.686;2023-02-08T01:31:41;97833.97;;;-2.76;100.00
57644;BME280;43474;46.510;6.686;2023-02-08T01:34:08;97825.84;;;-2.82;100.00
57644;BME280;43474;46.510;6.686;2023-02-08T01:36:35;97802.59;;;-2.84;100.00
57644;BME280;43474;46.510;6.686;2023-02-08T01:39:01;97791.53;;;-2.97;100.00
57644;BME280;43474;46.510;6.686;2023-02-08T01:41:33;97800.84;;;-2.83;100.00
57644;BME280;43474;46.510;6.686;2023-02-08T01:46:32;97815.59;;;-2.73;100.00
57644;BME280;43474;46.510;6.686;2023-02-08T01:49:05;97793.31;;;-2.87;100.00
57644;BME280;43474;46.510;6.686;2023-02-08T01:51:36;97784.94;;;-2.90;100.00
57644;BME280;43474;46.510;6.686;2023-02-08T01:54:04;97802.03;;;-2.88;100.00
57644;BME280;43474;46.510;6.686;2023-02-08T01:56:33;97791.41;;;-2.84;100.00
57644;BME280;43474;46.510;6.686;2023-02-08T01:59:05;97808.38;;;-2.80;100.00
57644;BME280;43474;46.510;6.686;2023-02-08T02:01:33;97802.03;;;-2.76;100.00
57644;BME280;43474;46.510;6.686;2023-02-08T02:04:02;97788.00;;;-2.96;100.00
57644;BME280;43474;46.510;6.686;2023-02-08T02:06:33;97791.06;;;-2.91;100.00
57644;BME280;43474;46.510;6.686;2023-02-08T02:11:37;97791.53;;;-2.86;100.00
57644;BME280;43474;46.510;6.686;2023-02-08T02:14:04;97793.44;;;-2.88;100.00
57644;BME280;43474;46.510;6.686;2023-02-08T02:16:29;97819.59;;;-2.80;100.00
57644;BME280;43474;46.510;6.686;2023-02-08T02:18:55;97775.84;;;-2.96;100.00
57644;BME280;43474;46.510;6.686;2023-02-08T02:21:24;97809.00;;;-2.88;100.00
57644;BME280;43474;46.510;6.686;2023-02-08T02:24:18;97805.44;;;-2.87;100.00
57644;BME280;43474;46.510;6.686;2023-02-08T02:30:05;97806.63;;;-2.91;100.00
57644;BME280;43474;46.510;6.686;2023-02-08T02:32:54;97812.03;;;-2.94;100.00
57644;BME280;43474;46.510;6.686;2023-02-08T02:35:31;97817.00;;;-2.91;100.00
57644;BME280;43474;46.510;6.686;2023-02-08T02:38:11;97813.47;;;-2.90;100.00
57644;BME280;43474;46.510;6.686;2023-02-08T02:43:25;97815.91;;;-2.89;100.00
57644;BME280;43474;46.510;6.686;2023-02-08T02:46:14;97816.41;;;-2.72;100.00
57644;BME280;43474;46.510;6.686;2023-02-08T02:51:42;97802.38;;;-2.81;100.00
57644;BME280;43474;46.510;6.686;2023-02-08T02:54:14;97819.94;;;-2.62;100.00
57644;BME280;43474;46.510;6.686;2023-02-08T02:56:43;97810.97;;;-2.58;100.00
57644;BME280;43474;46.510;6.686;2023-02-08T02:59:11;97810.03;;;-2.57;100.00
57644;BME280;43474;46.510;6.686;2023-02-08T03:01:38;97810.84;;;-2.56;100.00
57644;BME280;43474;46.510;6.686;2023-02-08T03:20:50;97815.81;;;-2.76;100.00
57644;BME280;43474;46.510;6.686;2023-02-08T03:23:27;97800.00;;;-2.84;100.00
57644;BME280;43474;46.510;6.686;2023-02-08T03:26:08;97814.78;;;-2.73;100.00
57644;BME280;43474;46.510;6.686;2023-02-08T03:28:41;97814.06;;;-2.87;100.00
57644;BME280;43474;46.510;6.686;2023-02-08T03:36:25;97815.56;;;-2.84;100.00
57644;BME280;43474;46.510;6.686;2023-02-08T03:38:54;97818.88;;;-2.82;100.00
57644;BME280;43474;46.510;6.686;2023-02-08T03:41:26;97817.34;;;-2.84;100.00
57644;BME280;43474;46.510;6.686;2023-02-08T03:43:58;97815.22;;;-2.79;100.00
57644;BME280;43474;46.510;6.686;2023-02-08T03:46:30;97822.28;;;-2.70;100.00
57644;BME280;43474;46.510;6.686;2023-02-08T03:49:01;97808.97;;;-2.77;100.00
57644;BME280;43474;46.510;6.686;2023-02-08T03:51:29;97810.16;;;-2.81;100.00
57644;BME280;43474;46.510;6.686;2023-02-08T03:53:57;97816.97;;;-2.69;100.00
57644;BME280;43474;46.510;6.686;2023-02-08T03:56:36;97837.16;;;-2.61;100.00
57644;BME280;43474;46.510;6.686;2023-02-08T03:59:06;97838.69;;;-2.58;100.00
57644;BME280;43474;46.510;6.686;2023-02-08T04:01:45;97831.38;;;-2.53;100.00
57644;BME280;43474;46.510;6.686;2023-02-08T04:04:14;97832.53;;;-2.46;100.00
57644;BME280;43474;46.510;6.686;2023-02-08T04:06:42;97819.47;;;-2.56;100.00
57644;BME280;43474;46.510;6.686;2023-02-08T04:09:07;97822.28;;;-2.59;100.00
57644;BME280;43474;46.510;6.686;2023-02-08T04:11:33;97814.25;;;-2.56;100.00
57644;BME280;43474;46.510;6.686;2023-02-08T04:13:59;97831.09;;;-2.39;100.00
57644;BME280;43474;46.510;6.686;2023-02-08T04:16:24;97827.22;;;-2.45;100.00
57644;BME280;43474;46.510;6.686;2023-02-08T04:18:50;97815.06;;;-2.44;100.00
57644;BME280;43474;46.510;6.686;2023-02-08T04:21:15;97828.88;;;-2.32;100.00
57644;BME280;43474;46.510;6.686;2023-02-08T04:23:41;97828.50;;;-2.39;100.00
57644;BME280;43474;46.510;6.686;2023-02-08T04:26:06;97835.47;;;-2.28;100.00
57644;BME280;43474;46.510;6.686;2023-02-08T04:28:33;97825.81;;;-2.38;100.00
57644;BME280;43474;46.510;6.686;2023-02-08T04:30:59;97830.63;;;-2.33;100.00
57644;BME280;43474;46.510;6.686;2023-02-08T04:33:24;97843.94;;;-2.26;100.00
57644;BME280;43474;46.510;6.686;2023-02-08T04:35:50;97838.88;;;-2.28;100.00
57644;BME280;43474;46.510;6.686;2023-02-08T04:38:16;97845.59;;;-2.25;100.00
57644;BME280;43474;46.510;6.686;2023-02-08T04:40:42;97835.84;;;-2.33;100.00
57644;BME280;43474;46.510;6.686;2023-02-08T04:43:08;97846.19;;;-2.22;100.00
57644;BME280;43474;46.510;6.686;2023-02-08T04:45:33;97833.69;;;-2.28;100.00
57644;BME280;43474;46.510;6.686;2023-02-08T04:48:02;97847.59;;;-2.18;100.00
57644;BME280;43474;46.510;6.686;2023-02-08T04:50:28;97848.28;;;-2.16;100.00
57644;BME280;43474;46.510;6.686;2023-02-08T04:52:54;97819.91;;;-2.28;100.00
57644;BME280;43474;46.510;6.686;2023-02-08T04:55:19;97830.47;;;-2.20;100.00
57644;BME280;43474;46.510;6.686;2023-02-08T04:57:45;97830.56;;;-2.11;100.00
57644;BME280;43474;46.510;6.686;2023-02-08T05:00:11;97851.00;;;-2.06;100.00
57644;BME280;43474;46.510;6.686;2023-02-08T05:02:37;97834.25;;;-2.13;100.00
57644;BME280;43474;46.510;6.686;2023-02-08T05:05:03;97843.56;;;-2.11;100.00
57644;BME280;43474;46.510;6.686;2023-02-08T05:07:30;97848.25;;;-2.04;100.00
57644;BME280;43474;46.510;6.686;2023-02-08T05:09:55;97822.31;;;-2.16;100.00
57644;BME280;43474;46.510;6.686;2023-02-08T05:12:21;97831.28;;;-2.09;100.00
57644;BME280;43474;46.510;6.686;2023-02-08T05:14:46;97839.91;;;-2.08;100.00
57644;BME280;43474;46.510;6.686;2023-02-08T05:17:12;97833.50;;;-2.04;100.00
57644;BME280;43474;46.510;6.686;2023-02-08T05:19:37;97837.63;;;-2.01;100.00
57644;BME280;43474;46.510;6.686;2023-02-08T05:22:03;97844.09;;;-1.96;100.00
57644;BME280;43474;46.510;6.686;2023-02-08T05:24:28;97829.94;;;-1.92;100.00
57644;BME280;43474;46.510;6.686;2023-02-08T05:26:54;97835.38;;;-1.95;100.00
57644;BME280;43474;46.510;6.686;2023-02-08T05:29:19;97820.16;;;-1.99;100.00
57644;BME280;43474;46.510;6.686;2023-02-08T05:31:45;97829.84;;;-2.01;100.00
57644;BME280;43474;46.510;6.686;2023-02-08T05:34:10;97828.78;;;-1.99;100.00
57644;BME280;43474;46.510;6.686;2023-02-08T05:36:36;97825.09;;;-1.96;100.00
57644;BME280;43474;46.510;6.686;2023-02-08T05:39:03;97812.84;;;-2.05;100.00
57644;BME280;43474;46.510;6.686;2023-02-08T05:41:28;97819.31;;;-2.00;100.00
57644;BME280;43474;46.510;6.686;2023-02-08T05:43:54;97825.94;;;-1.96;100.00
57644;BME280;43474;46.510;6.686;2023-02-08T05:46:20;97822.06;;;-2.01;100.00
57644;BME280;43474;46.510;6.686;2023-02-08T05:48:45;97844.81;;;-1.94;100.00
57644;BME280;43474;46.510;6.686;2023-02-08T05:51:11;97824.19;;;-2.06;100.00
57644;BME280;43474;46.510;6.686;2023-02-08T05:53:37;97833.41;;;-2.02;100.00
57644;BME280;43474;46.510;6.686;2023-02-08T05:56:03;97847.19;;;-2.02;100.00
57644;BME280;43474;46.510;6.686;2023-02-08T05:58:28;97858.06;;;-1.97;100.00
57644;BME280;43474;46.510;6.686;2023-02-08T06:00:54;97843.97;;;-1.94;100.00
57644;BME280;43474;46.510;6.686;2023-02-08T06:03:20;97843.28;;;-1.96;100.00
57644;BME280;43474;46.510;6.686;2023-02-08T06:05:46;97844.69;;;-1.92;100.00
57644;BME280;43474;46.510;6.686;2023-02-08T06:08:12;97847.16;;;-1.91;100.00
57644;BME280;43474;46.510;6.686;2023-02-08T06:10:38;97855.91;;;-1.92;100.00
57644;BME280;43474;46.510;6.686;2023-02-08T06:13:03;97842.69;;;-2.00;100.00
57644;BME280;43474;46.510;6.686;2023-02-08T06:15:29;97863.47;;;-1.89;100.00
57644;BME280;43474;46.510;6.686;2023-02-08T06:17:55;97863.00;;;-1.94;100.00
57644;BME280;43474;46.510;6.686;2023-02-08T06:20:21;97865.13;;;-1.88;100.00
57644;BME280;43474;46.510;6.686;2023-02-08T06:22:46;97869.59;;;-1.90;100.00
57644;BME280;43474;46.510;6.686;2023-02-08T06:25:12;97880.69;;;-1.88;100.00
57644;BME280;43474;46.510;6.686;2023-02-08T06:27:37;97850.50;;;-2.00;100.00
57644;BME280;43474;46.510;6.686;2023-02-08T06:30:04;97862.06;;;-1.93;100.00
57644;BME280;43474;46.510;6.686;2023-02-08T06:32:29;97863.22;;;-1.86;100.00
57644;BME280;43474;46.510;6.686;2023-02-08T06:34:56;97874.41;;;-1.74;100.00
57644;BME280;43474;46.510;6.686;2023-02-08T06:37:21;97864.03;;;-1.85;100.00
57644;BME280;43474;46.510;6.686;2023-02-08T06:39:47;97876.28;;;-1.76;100.00
57644;BME280;43474;46.510;6.686;2023-02-08T06:42:12;97861.69;;;-1.88;100.00
57644;BME280;43474;46.510;6.686;2023-02-08T06:44:38;97865.31;;;-1.79;100.00
57644;BME280;43474;46.510;6.686;2023-02-08T06:47:03;97866.03;;;-1.77;100.00
57644;BME280;43474;46.510;6.686;2023-02-08T06:49:29;97874.13;;;-1.71;100.00
57644;BME280;43474;46.510;6.686;2023-02-08T06:51:55;97876.28;;;-1.76;100.00
57644;BME280;43474;46.510;6.686;2023-02-08T06:54:20;97869.69;;;-1.80;100.00
57644;BME280;43474;46.510;6.686;2023-02-08T06:56:46;97876.41;;;-1.77;100.00
57644;BME280;43474;46.510;6.686;2023-02-08T06:59:12;97872.28;;;-1.80;100.00
57644;BME280;43474;46.510;6.686;2023-02-08T07:01:37;97875.22;;;-1.73;100.00
57644;BME280;43474;46.510;6.686;2023-02-08T07:04:03;97878.75;;;-1.74;100.00
57644;BME280;43474;46.510;6.686;2023-02-08T07:06:28;97869.44;;;-1.77;100.00
57644;BME280;43474;46.510;6.686;2023-02-08T07:08:54;97869.00;;;-1.82;100.00
57644;BME280;43474;46.510;6.686;2023-02-08T07:11:20;97877.09;;;-1.75;100.00
57644;BME280;43474;46.510;6.686;2023-02-08T07:13:48;97891.28;;;-1.68;100.00
57644;BME280;43474;46.510;6.686;2023-02-08T07:16:13;97877.00;;;-1.74;100.00
57644;BME280;43474;46.510;6.686;2023-02-08T07:18:39;97859.41;;;-1.82;100.00
57644;BME280;43474;46.510;6.686;2023-02-08T07:21:06;97879.66;;;-1.64;100.00
57644;BME280;43474;46.510;6.686;2023-02-08T07:23:32;97870.47;;;-1.68;100.00
57644;BME280;43474;46.510;6.686;2023-02-08T07:26:09;97878.22;;;-1.57;100.00
57644;BME280;43474;46.510;6.686;2023-02-08T07:28:37;97875.63;;;-1.57;100.00
57644;BME280;43474;46.510;6.686;2023-02-08T07:31:07;97865.22;;;-1.57;100.00
57644;BME280;43474;46.510;6.686;2023-02-08T07:33:33;97885.47;;;-1.40;100.00
57644;BME280;43474;46.510;6.686;2023-02-08T07:35:59;97868.59;;;-1.45;100.00
57644;BME280;43474;46.510;6.686;2023-02-08T07:38:25;97865.69;;;-1.52;100.00
57644;BME280;43474;46.510;6.686;2023-02-08T07:40:50;97858.72;;;-1.51;100.00
57644;BME280;43474;46.510;6.686;2023-02-08T07:43:16;97880.16;;;-1.38;100.00
57644;BME280;43474;46.510;6.686;2023-02-08T07:45:41;97875.91;;;-1.39;100.00
57644;BME280;43474;46.510;6.686;2023-02-08T07:48:07;97881.44;;;-1.33;100.00
57644;BME280;43474;46.510;6.686;2023-02-08T07:50:33;97885.00;;;-1.34;100.00
57644;BME280;43474;46.510;6.686;2023-02-08T07:52:58;97872.81;;;-1.33;100.00
57644;BME280;43474;46.510;6.686;2023-02-08T07:55:24;97888.41;;;-1.33;100.00
57644;BME280;43474;46.510;6.686;2023-02-08T07:57:49;97879.06;;;-1.36;100.00
57644;BME280;43474;46.510;6.686;2023-02-08T08:00:16;97884.03;;;-1.33;100.00
57644;BME280;43474;46.510;6.686;2023-02-08T08:02:43;97895.19;;;-1.21;100.00
57644;BME280;43474;46.510;6.686;2023-02-08T08:05:10;97890.44;;;-1.16;100.00
57644;BME280;43474;46.510;6.686;2023-02-08T08:07:36;97887.47;;;-1.11;100.00
57644;BME280;43474;46.510;6.686;2023-02-08T08:10:02;97889.00;;;-1.09;100.00
57644;BME280;43474;46.510;6.686;2023-02-08T08:12:28;97883.06;;;-1.11;100.00
57644;BME280;43474;46.510;6.686;2023-02-08T08:14:53;97897.09;;;-1.02;100.00
57644;BME280;43474;46.510;6.686;2023-02-08T08:17:19;97901.94;;;-0.97;100.00
57644;BME280;43474;46.510;6.686;2023-02-08T08:19:45;97901.94;;;-0.97;100.00
57644;BME280;43474;46.510;6.686;2023-02-08T08:22:10;97905.34;;;-0.97;100.00
57644;BME280;43474;46.510;6.686;2023-02-08T08:24:36;97916.78;;;-0.88;100.00
57644;BME280;43474;46.510;6.686;2023-02-08T08:27:05;97908.59;;;-0.84;100.00
57644;BME280;43474;46.510;6.686;2023-02-08T08:29:32;97919.44;;;-0.79;100.00
57644;BME280;43474;46.510;6.686;2023-02-08T08:31:58;97891.00;;;-0.91;100.00
57644;BME280;43474;46.510;6.686;2023-02-08T08:34:24;97920.44;;;-0.70;100.00
57644;BME280;43474;46.510;6.686;2023-02-08T08:36:57;97917.72;;;-0.68;100.00
57644;BME280;43474;46.510;6.686;2023-02-08T08:39:23;97923.47;;;-0.65;100.00
57644;BME280;43474;46.510;6.686;2023-02-08T08:41:49;97915.56;;;-0.63;100.00
57644;BME280;43474;46.510;6.686;2023-02-08T08:44:15;97921.50;;;-0.52;100.00
57644;BME280;43474;46.510;6.686;2023-02-08T08:46:41;97915.72;;;-0.55;100.00
57644;BME280;43474;46.510;6.686;2023-02-08T08:49:06;97917.53;;;-0.46;100.00
57644;BME280;43474;46.510;6.686;2023-02-08T08:51:32;97913.91;;;-0.34;100.00
57644;BME280;43474;46.510;6.686;2023-02-08T08:54:00;97902.78;;;-0.36;100.00
57644;BME280;43474;46.510;6.686;2023-02-08T08:56:26;97917.09;;;-0.20;100.00
57644;BME280;43474;46.510;6.686;2023-02-08T08:58:52;97907.63;;;-0.21;100.00
57644;BME280;43474;46.510;6.686;2023-02-08T09:01:17;97922.06;;;-0.08;100.00
57644;BME280;43474;46.510;6.686;2023-02-08T09:03:43;97900.94;;;-0.14;100.00
57644;BME280;43474;46.510;6.686;2023-02-08T09:06:09;97914.53;;;-0.01;100.00
57644;BME280;43474;46.510;6.686;2023-02-08T09:08:34;97918.25;;;-0.04;100.00
57644;BME280;43474;46.510;6.686;2023-02-08T09:11:12;97927.56;;;-0.01;100.00
57644;BME280;43474;46.510;6.686;2023-02-08T09:13:38;97930.31;;;-0.03;100.00
57644;BME280;43474;46.510;6.686;2023-02-08T09:16:09;97938.72;;;0.01;100.00
57644;BME280;43474;46.510;6.686;2023-02-08T09:18:36;97930.88;;;0.01;100.00
57644;BME280;43474;46.510;6.686;2023-02-08T09:21:24;97900.63;;;-0.21;100.00
57644;BME280;43474;46.510;6.686;2023-02-08T09:23:49;97906.97;;;-0.14;100.00
57644;BME280;43474;46.510;6.686;2023-02-08T09:26:17;97912.31;;;-0.15;100.00
57644;BME280;43474;46.510;6.686;2023-02-08T09:28:43;97945.41;;;0.04;100.00
57644;BME280;43474;46.510;6.686;2023-02-08T09:31:21;97936.94;;;0.02;100.00
57644;BME280;43474;46.510;6.686;2023-02-08T09:33:49;97930.78;;;0.12;100.00
57644;BME280;43474;46.510;6.686;2023-02-08T09:36:15;97934.88;;;0.15;100.00
57644;BME280;43474;46.510;6.686;2023-02-08T09:38:41;97948.09;;;0.23;100.00
57644;BME280;43474;46.510;6.686;2023-02-08T09:46:40;97948.09;;;0.23;100.00
57644;BME280;43474;46.510;6.686;2023-02-08T09:49:17;97952.78;;;0.39;100.00
57644;BME280;43474;46.510;6.686;2023-02-08T09:51:55;97954.00;;;0.35;100.00
57644;BME280;43474;46.510;6.686;2023-02-08T09:54:42;97957.72;;;0.42;100.00
57644;BME280;43474;46.510;6.686;2023-02-08T09:57:17;97939.59;;;0.31;100.00
57644;BME280;43474;46.510;6.686;2023-02-08T09:59:51;97952.34;;;0.34;100.00
57644;BME280;43474;46.510;6.686;2023-02-08T10:02:27;97950.03;;;0.31;100.00
57644;BME280;43474;46.510;6.686;2023-02-08T10:05:03;97968.72;;;0.45;100.00
57644;BME280;43474;46.510;6.686;2023-02-08T10:07:30;97971.19;;;0.47;100.00
57644;BME280;43474;46.510;6.686;2023-02-08T10:10:06;97960.50;;;0.50;100.00
57644;BME280;43474;46.510;6.686;2023-02-08T10:12:54;97976.13;;;0.60;100.00
57644;BME280;43474;46.510;6.686;2023-02-08T10:23:06;97977.94;;;0.69;100.00
57644;BME280;43474;46.510;6.686;2023-02-08T10:26:12;97960.94;;;0.65;100.00
57644;BME280;43474;46.510;6.686;2023-02-08T10:28:49;97969.59;;;0.75;100.00
57644;BME280;43474;46.510;6.686;2023-02-08T10:37:16;97945.00;;;0.68;100.00
57644;BME280;43474;46.510;6.686;2023-02-08T10:39:43;97945.97;;;0.76;100.00
57644;BME280;43474;46.510;6.686;2023-02-08T10:42:16;97934.72;;;0.76;100.00
57644;BME280;43474;46.510;6.686;2023-02-08T10:45:14;97935.94;;;0.82;100.00
57644;BME280;43474;46.510;6.686;2023-02-08T10:47:46;97939.50;;;0.90;100.00
57644;BME280;43474;46.510;6.686;2023-02-08T10:50:36;97956.81;;;1.01;100.00
57644;BME280;43474;46.510;6.686;2023-02-08T10:53:03;97954.88;;;1.03;100.00
57644;BME280;43474;46.510;6.686;2023-02-08T10:55:31;97941.56;;;0.96;100.00
57644;BME280;43474;46.510;6.686;2023-02-08T10:58:01;97943.22;;;0.97;100.00
57644;BME280;43474;46.510;6.686;2023-02-08T11:00:39;97955.84;;;1.12;100.00
57644;BME280;43474;46.510;6.686;2023-02-08T11:03:31;97967.50;;;1.27;100.00
57644;BME280;43474;46.510;6.686;2023-02-08T11:05:58;97946.88;;;1.24;100.00
57644;BME280;43474;46.510;6.686;2023-02-08T11:08:25;97962.94;;;1.39;100.00
57644;BME280;43474;46.510;6.686;2023-02-08T11:13:40;97957.53;;;1.60;100.00
57644;BME280;43474;46.510;6.686;2023-02-08T11:16:06;97961.88;;;1.69;100.00
57644;BME280;43474;46.510;6.686;2023-02-08T11:18:38;97961.47;;;1.73;100.00
57644;BME280;43474;46.510;6.686;2023-02-08T11:21:07;97939.34;;;1.68;100.00
57644;BME280;43474;46.510;6.686;2023-02-08T11:23:40;97937.66;;;1.76;100.00
57644;BME280;43474;46.510;6.686;2023-02-08T11:26:30;97964.56;;;1.96;100.00
57644;BME280;43474;46.510;6.686;2023-02-08T11:29:17;97940.88;;;1.98;100.00
57644;BME280;43474;46.510;6.686;2023-02-08T11:34:37;97939.78;;;2.46;98.54
57644;BME280;43474;46.510;6.686;2023-02-08T11:37:17;97937.94;;;2.56;100.00
57644;BME280;43474;46.510;6.686;2023-02-08T11:39:53;97936.06;;;2.66;99.26
57644;BME280;43474;46.510;6.686;2023-02-08T11:42:23;97944.06;;;2.82;97.15
57644;BME280;43474;46.510;6.686;2023-02-08T11:44:50;97935.00;;;2.77;95.51
57644;BME280;43474;46.510;6.686;2023-02-08T11:47:22;97934.88;;;2.96;97.39
57644;BME280;43474;46.510;6.686;2023-02-08T11:50:01;97925.44;;;3.03;94.04
57644;BME280;43474;46.510;6.686;2023-02-08T11:52:35;97938.06;;;3.08;94.61
57644;BME280;43474;46.510;6.686;2023-02-08T11:57:53;97928.47;;;3.43;91.16
57644;BME280;43474;46.510;6.686;2023-02-08T12:00:28;97909.38;;;3.24;91.29
57644;BME280;43474;46.510;6.686;2023-02-08T12:03:12;97928.00;;;3.39;91.42
57644;BME280;43474;46.510;6.686;2023-02-08T12:05:58;97911.72;;;4.38;90.09
57644;BME280;43474;46.510;6.686;2023-02-08T12:08:40;97918.28;;;5.56;83.49
57644;BME280;43474;46.510;6.686;2023-02-08T12:14:09;97907.22;;;6.33;79.08
57644;BME280;43474;46.510;6.686;2023-02-08T12:16:52;97902.69;;;6.41;77.99
57644;BME280;43474;46.510;6.686;2023-02-08T12:19:56;97888.44;;;5.96;78.20
57644;BME280;43474;46.510;6.686;2023-02-08T12:22:27;97899.06;;;6.11;73.46
57644;BME280;43474;46.510;6.686;2023-02-08T12:30:35;97894.66;;;5.40;79.75
57644;BME280;43474;46.510;6.686;2023-02-08T12:33:38;97887.25;;;5.52;76.68
57644;BME280;43474;46.510;6.686;2023-02-08T12:36:38;97875.13;;;5.34;76.48
57644;BME280;43474;46.510;6.686;2023-02-08T12:42:47;97859.41;;;5.10;78.54
57644;BME280;43474;46.510;6.686;2023-02-08T12:50:55;97856.97;;;4.84;79.82
57644;BME280;43474;46.510;6.686;2023-02-08T12:53:36;97832.19;;;4.54;82.19
57644;BME280;43474;46.510;6.686;2023-02-08T12:56:09;97830.03;;;4.74;80.33
57644;BME280;43474;46.510;6.686;2023-02-08T12:58:46;97851.38;;;4.79;80.14
57644;BME280;43474;46.510;6.686;2023-02-08T13:01:17;97847.28;;;4.92;79.82
57644;BME280;43474;46.510;6.686;2023-02-08T13:06:41;97820.66;;;5.04;79.39
57644;BME280;43474;46.510;6.686;2023-02-08T13:12:23;97826.56;;;4.81;78.54
57644;BME280;43474;46.510;6.686;2023-02-08T13:17:27;97819.69;;;4.88;78.62
57644;BME280;43474;46.510;6.686;2023-02-08T13:20:02;97809.66;;;5.00;79.44
57644;BME280;43474;46.510;6.686;2023-02-08T13:22:32;97819.69;;;4.88;80.25
57644;BME280;43474;46.510;6.686;2023-02-08T13:25:00;97810.97;;;5.04;79.32
57644;BME280;43474;46.510;6.686;2023-02-08T13:27:26;97797.47;;;5.24;79.95
57644;BME280;43474;46.510;6.686;2023-02-08T13:29:52;97797.47;;;5.15;78.48
57644;BME280;43474;46.510;6.686;2023-02-08T13:32:29;97796.66;;;5.15;78.51
57644;BME280;43474;46.510;6.686;2023-02-08T13:35:05;97807.97;;;5.15;77.20
57644;BME280;43474;46.510;6.686;2023-02-08T13:37:36;97805.25;;;4.84;80.32
57644;BME280;43474;46.510;6.686;2023-02-08T13:42:40;97806.22;;;4.91;80.57
57644;BME280;43474;46.510;6.686;2023-02-08T13:45:09;97804.94;;;4.87;80.41
57644;BME280;43474;46.510;6.686;2023-02-08T13:47:47;97801.47;;;4.95;79.57
57644;BME280;43474;46.510;6.686;2023-02-08T13:53:06;97807.69;;;4.86;80.64
57644;BME280;43474;46.510;6.686;2023-02-08T13:55:51;97788.84;;;4.74;81.67
57644;BME280;43474;46.510;6.686;2023-02-08T14:03:38;97800.03;;;4.68;82.17
57644;BME280;43474;46.510;6.686;2023-02-08T14:06:21;97817.88;;;4.89;84.12
57644;BME280;43474;46.510;6.686;2023-02-08T14:11:49;97804.13;;;4.62;82.51
57644;BME280;43474;46.510;6.686;2023-02-08T14:14:26;97813.81;;;4.54;82.75
57644;BME280;43474;46.510;6.686;2023-02-08T14:17:18;97819.22;;;4.60;80.91
57644;BME280;43474;46.510;6.686;2023-02-08T14:19:45;97793.94;;;4.51;80.69
57644;BME280;43474;46.510;6.686;2023-02-08T14:22:20;97796.72;;;4.66;83.81
57644;BME280;43474;46.510;6.686;2023-02-08T14:24:49;97816.41;;;4.86;82.70
57644;BME280;43474;46.510;6.686;2023-02-08T14:27:31;97799.69;;;4.55;83.20
57644;BME280;43474;46.510;6.686;2023-02-08T14:30:01;97809.03;;;4.41;83.16
57644;BME280;43474;46.510;6.686;2023-02-08T14:32:30;97804.09;;;4.13;85.00
57644;BME280;43474;46.510;6.686;2023-02-08T14:35:19;97811.16;;;4.29;84.51
57644;BME280;43474;46.510;6.686;2023-02-08T14:37:46;97814.94;;;4.35;83.71
57644;BME280;43474;46.510;6.686;2023-02-08T14:45:43;97791.91;;;3.88;84.60
57644;BME280;43474;46.510;6.686;2023-02-08T14:48:29;97808.81;;;3.94;86.37
57644;BME280;43474;46.510;6.686;2023-02-08T14:53:49;97800.72;;;3.87;87.52
57644;BME280;43474;46.510;6.686;2023-02-08T14:56:30;97813.53;;;3.90;87.47
57644;BME280;43474;46.510;6.686;2023-02-08T14:59:12;97794.38;;;3.89;88.10
57644;BME280;43474;46.510;6.686;2023-02-08T15:01:45;97812.69;;;3.81;87.85